createdAt,value
2019-05-23T00:09:30.685Z,99.90
2019-05-23T00:12:38.358Z,99.90
2019-05-23T00:15:48.320Z,99.90
2019-05-23T00:18:57.163Z,99.90
2019-05-23T00:21:46.263Z,99.90
2019-05-23T00:32:56.340Z,99.90
2019-05-23T00:35:37.352Z,99.90
2019-05-23T00:38:19.176Z,99.90
2019-05-23T00:41:01.085Z,99.90
2019-05-23T00:43:42.516Z,99.90
2019-05-23T00:46:24.469Z,99.90
2019-05-23T00:49:06.220Z,99.90
2019-05-23T00:51:47.124Z,99.90
2019-05-23T00:54:28.530Z,99.90
2019-05-23T00:57:10.458Z,99.90
2019-05-23T00:59:52.865Z,99.90
2019-05-23T01:02:34.725Z,99.90
2019-05-23T01:05:16.661Z,99.90
2019-05-23T01:07:57.100Z,99.90
2019-05-23T01:13:41.444Z,99.90
2019-05-23T01:16:30.631Z,99.90
2019-05-23T01:19:19.279Z,99.90
2019-05-23T01:31:09.376Z,99.90
2019-05-23T01:33:52.953Z,99.90
2019-05-23T01:36:34.905Z,99.90
2019-05-23T01:39:16.835Z,99.90
2019-05-23T01:45:03.366Z,99.90
2019-05-23T01:47:45.324Z,99.90
2019-05-23T01:50:27.151Z,99.90
2019-05-23T01:53:10.016Z,99.90
2019-05-23T01:55:51.312Z,99.90
2019-05-23T01:58:31.145Z,99.90
2019-05-23T02:01:40.011Z,99.90
2019-05-23T02:04:28.814Z,99.90
2019-05-23T02:10:13.317Z,99.90
2019-05-23T02:13:02.188Z,99.90
2019-05-23T02:19:06.259Z,99.90
2019-05-23T02:24:53.503Z,99.90
2019-05-23T02:30:37.765Z,99.90
2019-05-23T02:33:19.629Z,99.90
2019-05-23T02:36:01.510Z,99.90
2019-05-23T02:39:01.929Z,99.90
2019-05-23T02:42:02.571Z,99.90
2019-05-23T02:44:45.076Z,99.90
2019-05-23T02:50:35.859Z,99.90
2019-05-23T02:53:17.044Z,99.90
2019-05-23T02:55:59.534Z,99.90
2019-05-23T02:58:41.106Z,99.90
2019-05-23T03:01:22.428Z,99.90
2019-05-23T03:04:05.759Z,99.90
2019-05-23T03:06:48.329Z,99.90
2019-05-23T03:09:30.025Z,99.90
2019-05-23T03:12:12.316Z,99.90
2019-05-23T03:18:40.022Z,99.90
2019-05-23T03:21:28.628Z,99.90
2019-05-23T03:27:26.499Z,99.90
2019-05-23T03:33:21.140Z,99.90
2019-05-23T03:36:03.517Z,99.90
2019-05-23T03:38:44.516Z,99.90
2019-05-23T03:41:25.997Z,99.90
2019-05-23T03:44:07.244Z,99.90
2019-05-23T03:46:51.183Z,99.90
2019-05-23T03:49:34.285Z,99.90
2019-05-23T03:52:16.379Z,99.90
2019-05-23T03:54:57.699Z,99.90
2019-05-23T03:57:39.226Z,99.90
2019-05-23T04:00:21.715Z,99.90
2019-05-23T04:03:04.625Z,99.90
2019-05-23T04:05:47.829Z,99.90
2019-05-23T04:08:28.967Z,99.90
2019-05-23T04:11:11.658Z,99.90
2019-05-23T04:13:53.287Z,99.90
2019-05-23T04:16:35.120Z,99.50
2019-05-23T04:19:16.707Z,98.60
2019-05-23T04:21:58.132Z,96.60
2019-05-23T04:24:39.874Z,94.70
2019-05-23T04:27:20.920Z,94.30
2019-05-23T04:30:01.639Z,94.40
2019-05-23T04:32:43.366Z,93.50
2019-05-23T04:35:24.155Z,92.90
2019-05-23T04:38:05.886Z,92.40
2019-05-23T04:40:46.722Z,91.70
2019-05-23T04:43:27.545Z,92.00
2019-05-23T04:46:08.499Z,90.60
2019-05-23T04:48:49.662Z,91.30
2019-05-23T04:51:30.922Z,91.20
2019-05-23T04:54:39.791Z,90.70
2019-05-23T04:57:28.286Z,90.40
2019-05-23T05:03:26.734Z,87.40
2019-05-23T05:06:15.643Z,86.20
2019-05-23T05:12:19.582Z,82.50
2019-05-23T05:15:08.162Z,82.40
2019-05-23T05:20:51.423Z,81.50
2019-05-23T05:23:39.907Z,82.70
2019-05-23T05:26:28.472Z,83.70
2019-05-23T05:29:17.401Z,83.70
2019-05-23T05:34:55.995Z,79.10
2019-05-23T05:37:44.761Z,80.30
2019-05-23T05:40:33.670Z,79.00
2019-05-23T05:43:22.554Z,76.20
2019-05-23T05:55:14.224Z,74.60
2019-05-23T06:03:58.575Z,72.30
2019-05-23T06:07:05.953Z,71.40
2019-05-23T06:12:49.787Z,71.00
2019-05-23T06:24:44.639Z,66.90
2019-05-23T06:33:23.834Z,66.10
2019-05-23T06:36:04.897Z,66.20
2019-05-23T06:38:46.968Z,66.70
2019-05-23T06:41:28.290Z,65.30
2019-05-23T06:43:58.172Z,64.90
2019-05-23T06:46:46.670Z,66.00
2019-05-23T06:49:35.456Z,66.70
2019-05-23T06:52:23.946Z,68.40
2019-05-23T06:55:12.560Z,70.10
2019-05-23T06:58:01.035Z,67.00
2019-05-23T07:00:49.810Z,67.80
2019-05-23T07:06:48.665Z,67.50
2019-05-23T07:09:37.237Z,66.80
2019-05-23T07:12:25.855Z,66.20
2019-05-23T07:14:55.754Z,66.50
2019-05-23T07:17:44.594Z,66.50
2019-05-23T07:20:33.174Z,66.80
2019-05-23T07:26:30.775Z,64.60
2019-05-23T07:32:12.514Z,63.60
2019-05-23T07:37:50.005Z,62.60
2019-05-23T07:40:58.889Z,62.20
2019-05-23T07:46:54.967Z,61.00
2019-05-23T07:49:43.829Z,59.50
2019-05-23T07:52:32.434Z,58.60
2019-05-23T07:58:01.654Z,58.20
2019-05-23T08:04:21.516Z,57.90
2019-05-23T08:07:00.359Z,57.40
2019-05-23T08:12:25.531Z,57.10
2019-05-23T08:15:14.252Z,56.10
2019-05-23T08:20:52.817Z,54.20
2019-05-23T08:27:25.747Z,53.30
2019-05-23T08:33:09.715Z,52.50
2019-05-23T08:38:57.465Z,51.30
2019-05-23T08:41:46.109Z,51.30
2019-05-23T08:48:02.903Z,51.20
2019-05-23T08:50:51.922Z,50.20
2019-05-23T08:53:41.510Z,50.60
2019-05-23T09:07:47.497Z,50.60
2019-05-23T09:14:03.086Z,48.80
2019-05-23T09:16:50.837Z,50.20
2019-05-23T09:19:20.686Z,48.20
2019-05-23T09:22:09.542Z,49.50
2019-05-23T09:24:38.992Z,48.10
2019-05-23T09:27:27.908Z,49.20
2019-05-23T09:30:36.752Z,49.00
2019-05-23T09:36:11.526Z,48.50
2019-05-23T09:39:00.013Z,47.10
2019-05-23T09:41:48.489Z,46.40
2019-05-23T09:44:36.972Z,45.50
2019-05-23T09:47:25.466Z,43.20
2019-05-23T09:50:31.757Z,45.60
2019-05-23T09:56:15.751Z,40.40
2019-05-23T09:59:04.208Z,39.10
2019-05-23T10:07:57.664Z,40.50
2019-05-23T10:10:46.178Z,40.60
2019-05-23T10:13:38.966Z,40.60
2019-05-23T10:16:24.765Z,40.90
2019-05-23T10:19:13.628Z,41.60
2019-05-23T10:24:49.697Z,39.70
2019-05-23T10:27:30.800Z,41.20
2019-05-23T10:30:14.222Z,41.10
2019-05-23T10:32:55.938Z,41.40
2019-05-23T10:35:37.081Z,39.30
2019-05-23T10:38:18.415Z,40.80
2019-05-23T10:41:00.414Z,41.70
2019-05-23T10:43:41.525Z,41.10
2019-05-23T10:46:23.000Z,41.00
2019-05-23T10:52:12.978Z,41.60
2019-05-23T10:54:54.185Z,40.50
2019-05-23T10:57:35.248Z,39.80
2019-05-23T11:00:18.970Z,40.10
2019-05-23T11:03:00.700Z,39.70
2019-05-23T11:05:41.721Z,40.30
2019-05-23T11:08:28.500Z,40.80
2019-05-23T11:11:07.581Z,41.20
2019-05-23T11:13:48.765Z,41.10
2019-05-23T11:16:30.032Z,41.30
2019-05-23T11:19:11.141Z,40.40
2019-05-23T11:21:52.671Z,39.90
2019-05-23T11:24:34.167Z,39.00
2019-05-23T11:27:14.839Z,40.20
2019-05-23T11:29:56.407Z,40.30
2019-05-23T11:32:36.083Z,39.50
2019-05-23T11:38:54.641Z,36.60
2019-05-23T11:41:43.133Z,36.60
2019-05-23T11:44:31.950Z,36.50
2019-05-23T11:47:20.703Z,38.00
2019-05-23T11:50:09.593Z,38.40
2019-05-23T11:55:47.204Z,37.30
2019-05-23T11:58:35.665Z,37.00
2019-05-23T12:01:23.259Z,34.70
2019-05-23T12:04:30.702Z,35.90
2019-05-23T12:14:02.072Z,35.70
2019-05-23T12:16:50.896Z,36.00
2019-05-23T12:19:39.386Z,37.10
2019-05-23T12:25:37.293Z,36.90
2019-05-23T12:28:26.253Z,35.90
2019-05-23T12:31:13.382Z,33.70
2019-05-23T12:33:54.888Z,34.90
2019-05-23T12:36:36.870Z,34.80
2019-05-23T12:42:37.020Z,35.80
2019-05-23T12:45:18.386Z,35.00
2019-05-23T12:54:02.719Z,34.00
2019-05-23T12:59:46.904Z,34.60
2019-05-23T13:05:34.699Z,33.60
2019-05-23T13:11:30.497Z,33.60
2019-05-23T13:17:08.262Z,34.70
2019-05-23T13:19:56.937Z,35.40
2019-05-23T13:22:26.402Z,34.10
2019-05-23T13:28:24.106Z,34.20
2019-05-23T13:31:12.940Z,32.90
2019-05-23T13:33:54.147Z,33.50
2019-05-23T13:36:34.958Z,33.60
2019-05-23T13:39:06.616Z,32.90
2019-05-23T13:41:55.496Z,32.50
2019-05-23T13:44:44.260Z,32.50
2019-05-23T13:47:33.111Z,31.90
2019-05-23T13:53:30.770Z,32.00
2019-05-23T13:56:19.549Z,31.70
2019-05-23T13:59:08.007Z,30.80
2019-05-23T14:01:56.634Z,31.00
2019-05-23T14:04:26.047Z,32.40
2019-05-23T14:07:12.977Z,33.40
2019-05-23T14:10:19.203Z,33.40
2019-05-23T14:16:37.914Z,31.60
2019-05-23T14:19:29.444Z,31.80
2019-05-23T14:25:11.846Z,30.70
2019-05-23T14:27:59.177Z,31.80
2019-05-23T14:34:16.196Z,32.30
2019-05-23T14:37:05.308Z,31.10
2019-05-23T14:42:42.568Z,30.00
2019-05-23T14:48:38.713Z,29.60
2019-05-23T14:51:46.233Z,29.60
2019-05-23T14:54:53.601Z,30.70
2019-05-23T15:00:18.764Z,29.60
2019-05-23T15:03:06.981Z,29.10
2019-05-23T15:08:51.157Z,29.90
2019-05-23T15:15:05.734Z,29.80
2019-05-23T15:17:35.489Z,29.90
2019-05-23T15:20:24.670Z,30.50
2019-05-23T15:23:30.980Z,29.90
2019-05-23T15:26:23.528Z,30.50
2019-05-23T15:29:09.586Z,29.10
2019-05-23T15:32:02.586Z,29.10
2019-05-23T15:37:46.221Z,29.70
2019-05-23T15:40:28.026Z,31.20
2019-05-23T15:43:10.156Z,30.30
2019-05-23T15:45:39.793Z,30.00
2019-05-23T15:48:28.286Z,31.90
2019-05-23T15:54:47.529Z,31.60
2019-05-23T15:57:55.235Z,32.50
2019-05-23T16:01:02.612Z,33.00
2019-05-23T16:09:58.094Z,32.00
2019-05-23T16:15:59.760Z,31.20
2019-05-23T16:18:48.488Z,32.90
2019-05-23T16:24:46.089Z,30.00
2019-05-23T16:33:36.975Z,30.20
2019-05-23T16:36:17.800Z,29.90
2019-05-23T16:38:59.207Z,28.80
2019-05-23T16:41:40.116Z,29.10
2019-05-23T16:44:20.929Z,27.60
2019-05-23T16:47:01.808Z,29.90
2019-05-23T16:49:43.374Z,29.40
2019-05-23T16:52:25.197Z,29.10
2019-05-23T16:55:09.896Z,29.30
2019-05-23T17:01:23.460Z,31.40
2019-05-23T17:06:54.489Z,33.20
2019-05-23T17:16:03.476Z,32.90
2019-05-23T17:19:03.151Z,32.10
2019-05-23T17:30:56.908Z,33.50
2019-05-23T17:33:38.346Z,33.40
2019-05-23T17:36:19.851Z,34.50
2019-05-23T17:39:01.450Z,33.60
2019-05-23T17:41:43.286Z,33.80
2019-05-23T17:44:42.987Z,33.50
2019-05-23T17:47:24.387Z,34.70
2019-05-23T17:53:14.336Z,34.80
2019-05-23T17:55:55.757Z,34.80
2019-05-23T17:58:37.038Z,34.60
2019-05-23T18:01:18.632Z,34.70
2019-05-23T18:04:00.290Z,36.30
2019-05-23T18:06:42.067Z,37.40
2019-05-23T18:09:24.078Z,37.40
2019-05-23T18:12:07.185Z,37.10
2019-05-23T18:14:48.619Z,38.00
2019-05-23T18:17:29.458Z,38.50
2019-05-23T18:23:12.254Z,39.40
2019-05-23T18:28:56.781Z,40.90
2019-05-23T18:34:47.791Z,41.70
2019-05-23T18:37:29.378Z,42.40
2019-05-23T18:40:11.067Z,43.10
2019-05-23T18:42:52.855Z,43.10
2019-05-23T18:45:35.618Z,43.50
2019-05-23T18:48:16.728Z,43.50
2019-05-23T18:50:57.807Z,43.80
2019-05-23T18:56:46.887Z,44.20
2019-05-23T18:59:28.221Z,44.50
2019-05-23T19:02:09.509Z,45.00
2019-05-23T19:04:51.978Z,45.00
2019-05-23T19:07:32.950Z,45.30
2019-05-23T19:10:13.993Z,45.70
2019-05-23T19:12:55.273Z,45.50
2019-05-23T19:15:36.798Z,45.70
2019-05-23T19:18:17.445Z,46.20
2019-05-23T19:24:07.646Z,46.60
2019-05-23T19:26:49.158Z,47.60
2019-05-23T19:29:30.036Z,47.50
2019-05-23T19:32:12.265Z,47.50
2019-05-23T19:34:53.775Z,47.80
2019-05-23T19:37:34.810Z,49.30
2019-05-23T19:40:16.622Z,49.70
2019-05-23T19:42:58.156Z,50.30
2019-05-23T19:45:39.740Z,50.60
2019-05-23T19:48:21.295Z,51.20
2019-05-23T19:51:03.834Z,51.30
2019-05-23T19:53:45.519Z,51.70
2019-05-23T19:56:27.133Z,52.10
2019-05-23T19:59:27.336Z,52.40
2019-05-23T20:02:27.801Z,52.90
2019-05-23T20:05:12.627Z,53.50
2019-05-23T20:07:42.014Z,54.20
2019-05-23T20:10:12.904Z,54.30
2019-05-23T20:12:42.646Z,54.70
2019-05-23T20:15:12.186Z,54.60
2019-05-23T20:17:41.614Z,54.50
2019-05-23T20:20:11.423Z,55.20
2019-05-23T20:22:41.103Z,55.80
2019-05-23T20:25:11.214Z,57.00
2019-05-23T20:27:40.604Z,57.20
2019-05-23T20:30:13.537Z,57.50
2019-05-23T20:32:42.989Z,57.50
2019-05-23T20:35:12.704Z,57.70
2019-05-23T20:37:42.569Z,58.30
2019-05-23T20:40:11.986Z,58.10
2019-05-23T20:42:42.040Z,58.50
2019-05-23T20:45:11.763Z,58.80
2019-05-23T20:47:41.596Z,59.20
2019-05-23T20:50:11.216Z,59.50
2019-05-23T20:52:41.216Z,60.10
2019-05-23T20:55:11.056Z,59.90
2019-05-23T20:57:40.484Z,59.90
2019-05-23T21:00:11.927Z,59.20
2019-05-23T21:02:41.347Z,59.40
2019-05-23T21:05:10.862Z,59.20
2019-05-23T21:07:40.359Z,59.00
2019-05-23T21:10:09.952Z,58.80
2019-05-23T21:12:39.432Z,58.80
2019-05-23T21:15:09.049Z,59.20
2019-05-23T21:17:38.458Z,59.50
2019-05-23T21:20:08.467Z,59.50
2019-05-23T21:22:38.128Z,59.40
2019-05-23T21:25:07.621Z,59.60
2019-05-23T21:27:37.125Z,60.00
2019-05-23T21:30:06.568Z,60.50
2019-05-23T21:32:36.026Z,60.60
2019-05-23T21:35:06.041Z,61.40
2019-05-23T21:37:35.455Z,61.60
2019-05-23T21:40:05.067Z,62.20
2019-05-23T21:42:47.331Z,63.30
2019-05-23T21:45:05.838Z,63.00
2019-05-23T21:47:35.276Z,63.70
2019-05-23T21:50:05.125Z,64.70
2019-05-23T21:52:34.999Z,65.70
2019-05-23T21:55:04.510Z,66.20
2019-05-23T21:57:34.229Z,65.90
2019-05-23T22:00:03.772Z,66.90
2019-05-23T22:02:34.949Z,68.40
2019-05-23T22:05:10.657Z,69.20
2019-05-23T22:07:40.176Z,69.00
2019-05-23T22:10:10.195Z,69.20
2019-05-23T22:12:39.902Z,70.00
2019-05-23T22:15:09.706Z,71.80
2019-05-23T22:17:39.793Z,72.10
2019-05-23T22:20:09.671Z,72.90
2019-05-23T22:22:39.195Z,73.40
2019-05-23T22:25:08.673Z,73.80
2019-05-23T22:27:38.130Z,74.40
2019-05-23T22:30:08.046Z,74.10
2019-05-23T22:32:38.178Z,73.90
2019-05-23T22:35:16.878Z,74.00
2019-05-23T22:37:46.977Z,74.90
2019-05-23T22:40:16.913Z,74.60
2019-05-23T22:42:46.661Z,75.40
2019-05-23T22:45:18.268Z,75.70
2019-05-23T22:47:47.654Z,76.80
2019-05-23T22:50:17.086Z,76.70
2019-05-23T22:52:46.753Z,76.80
2019-05-23T22:55:16.188Z,77.00
2019-05-23T22:57:45.608Z,77.60
2019-05-23T23:00:16.710Z,78.10
2019-05-23T23:02:46.314Z,78.60
2019-05-23T23:05:15.735Z,79.20
2019-05-23T23:07:45.333Z,80.10
2019-05-23T23:10:14.857Z,80.20
2019-05-23T23:12:44.251Z,80.40
2019-05-23T23:15:13.667Z,81.10
2019-05-23T23:17:43.275Z,81.80
2019-05-23T23:20:12.803Z,82.50
2019-05-23T23:22:42.200Z,83.40
2019-05-23T23:25:12.017Z,84.00
2019-05-23T23:27:41.511Z,84.00
2019-05-23T23:30:12.512Z,84.70
2019-05-23T23:32:41.929Z,85.70
2019-05-23T23:35:11.424Z,85.40
2019-05-23T23:37:40.804Z,84.60
2019-05-23T23:40:11.486Z,84.20
2019-05-23T23:42:41.117Z,84.60
2019-05-23T23:45:27.988Z,85.60
2019-05-23T23:48:15.009Z,86.00
2019-05-23T23:51:02.053Z,86.60
2019-05-23T23:53:48.825Z,86.60
2019-05-23T23:56:35.541Z,86.80
2019-05-23T23:59:04.021Z,87.20
